createdAt,value
2019-05-22T00:02:16.099Z,26.00
2019-05-22T00:04:50.931Z,26.10
2019-05-22T00:07:24.436Z,26.10
2019-05-22T00:09:57.910Z,26.20
2019-05-22T00:12:45.682Z,26.20
2019-05-22T00:15:03.984Z,26.20
2019-05-22T00:17:36.301Z,26.30
2019-05-22T00:20:08.144Z,26.30
2019-05-22T00:22:41.881Z,26.20
2019-05-22T00:25:15.792Z,26.10
2019-05-22T00:27:49.183Z,26.10
2019-05-22T00:30:24.699Z,26.10
2019-05-22T00:32:56.919Z,26.10
2019-05-22T00:35:29.630Z,26.10
2019-05-22T00:38:03.869Z,26.00
2019-05-22T00:40:37.859Z,25.90
2019-05-22T00:43:13.971Z,25.90
2019-05-22T00:45:45.622Z,25.90
2019-05-22T00:48:22.498Z,25.90
2019-05-22T00:50:58.735Z,25.90
2019-05-22T00:53:36.155Z,25.90
2019-05-22T00:56:12.573Z,25.90
2019-05-22T00:58:45.079Z,25.90
2019-05-22T01:01:20.048Z,26.00
2019-05-22T01:03:52.141Z,26.00
2019-05-22T01:06:24.575Z,26.00
2019-05-22T01:08:58.274Z,26.00
2019-05-22T01:11:32.058Z,26.00
2019-05-22T01:14:05.842Z,26.00
2019-05-22T01:16:39.072Z,26.00
2019-05-22T01:19:13.614Z,25.90
2019-05-22T01:21:50.725Z,25.70
2019-05-22T01:24:23.118Z,25.60
2019-05-22T01:26:58.779Z,25.60
2019-05-22T01:29:33.178Z,25.50
2019-05-22T01:32:05.931Z,25.50
2019-05-22T01:34:39.342Z,25.60
2019-05-22T01:37:12.470Z,25.60
2019-05-22T01:39:50.963Z,25.60
2019-05-22T01:42:25.205Z,25.70
2019-05-22T01:45:04.140Z,25.70
2019-05-22T01:47:35.179Z,25.70
2019-05-22T01:50:08.826Z,25.60
2019-05-22T01:52:44.228Z,25.60
2019-05-22T01:55:15.932Z,25.50
2019-05-22T01:57:48.413Z,25.40
2019-05-22T02:00:20.869Z,25.40
2019-05-22T02:02:54.528Z,25.30
2019-05-22T02:05:28.188Z,25.30
2019-05-22T02:08:00.505Z,25.20
2019-05-22T02:10:35.536Z,25.20
2019-05-22T02:13:09.204Z,25.30
2019-05-22T02:15:41.727Z,25.30
2019-05-22T02:18:32.439Z,25.30
2019-05-22T02:21:08.747Z,25.30
2019-05-22T02:23:41.448Z,25.30
2019-05-22T02:26:15.484Z,25.20
2019-05-22T02:28:47.498Z,25.20
2019-05-22T02:31:20.487Z,25.20
2019-05-22T02:34:11.099Z,25.30
2019-05-22T02:36:44.929Z,25.30
2019-05-22T02:39:19.276Z,25.20
2019-05-22T02:42:03.414Z,25.20
2019-05-22T02:44:34.875Z,25.20
2019-05-22T02:47:19.091Z,25.20
2019-05-22T02:49:44.121Z,25.20
2019-05-22T02:52:20.440Z,25.20
2019-05-22T02:54:53.083Z,25.20
2019-05-22T02:57:27.934Z,25.20
2019-05-22T03:00:01.325Z,25.20
2019-05-22T03:02:34.868Z,25.30
2019-05-22T03:05:11.638Z,25.30
2019-05-22T03:07:44.442Z,25.30
2019-05-22T03:10:18.649Z,25.40
2019-05-22T03:12:52.688Z,25.40
2019-05-22T03:15:27.017Z,25.50
2019-05-22T03:18:01.990Z,25.50
2019-05-22T03:20:35.516Z,25.60
2019-05-22T03:23:43.182Z,25.80
2019-05-22T03:26:16.448Z,25.90
2019-05-22T03:28:48.477Z,26.00
2019-05-22T03:31:23.843Z,26.10
2019-05-22T03:33:54.345Z,26.30
2019-05-22T03:36:29.521Z,26.40
2019-05-22T03:39:00.863Z,26.60
2019-05-22T03:41:34.630Z,26.70
2019-05-22T03:44:07.091Z,26.90
2019-05-22T03:46:42.053Z,27.10
2019-05-22T03:49:29.643Z,27.30
2019-05-22T03:51:53.614Z,27.40
2019-05-22T03:54:26.592Z,27.60
2019-05-22T03:57:03.498Z,27.60
2019-05-22T03:59:35.129Z,27.70
2019-05-22T04:02:08.301Z,27.70
2019-05-22T04:04:42.078Z,27.70
2019-05-22T04:07:32.380Z,27.80
2019-05-22T04:10:06.640Z,27.90
2019-05-22T04:12:45.772Z,27.90
2019-05-22T04:15:20.407Z,27.90
2019-05-22T04:17:59.903Z,28.00
2019-05-22T04:20:31.767Z,28.10
2019-05-22T04:23:06.770Z,28.30
2019-05-22T04:25:39.061Z,28.50
2019-05-22T04:28:13.860Z,28.60
2019-05-22T04:30:46.828Z,28.80
2019-05-22T04:33:20.675Z,29.00
2019-05-22T04:35:53.086Z,29.10
2019-05-22T04:38:25.923Z,29.20
2019-05-22T04:40:59.407Z,29.30
2019-05-22T04:43:33.854Z,29.40
2019-05-22T04:46:11.846Z,29.50
2019-05-22T04:48:50.125Z,29.60
2019-05-22T04:51:42.527Z,29.70
2019-05-22T04:54:16.303Z,29.70
2019-05-22T04:56:50.470Z,29.80
2019-05-22T04:59:24.235Z,30.00
2019-05-22T05:01:57.576Z,30.10
2019-05-22T05:04:30.767Z,30.20
2019-05-22T05:07:05.098Z,30.30
2019-05-22T05:09:37.438Z,30.30
2019-05-22T05:12:12.866Z,30.40
2019-05-22T05:14:46.174Z,30.60
2019-05-22T05:17:19.719Z,30.70
2019-05-22T05:19:51.521Z,30.70
2019-05-22T05:22:32.817Z,30.80
2019-05-22T05:25:05.538Z,30.80
2019-05-22T05:27:37.945Z,30.90
2019-05-22T05:30:11.327Z,30.90
2019-05-22T05:32:45.834Z,31.00
2019-05-22T05:35:19.121Z,31.20
2019-05-22T05:37:51.231Z,31.20
2019-05-22T05:40:28.200Z,31.30
2019-05-22T05:43:04.785Z,31.40
2019-05-22T05:45:38.399Z,31.50
2019-05-22T05:48:14.299Z,31.70
2019-05-22T05:51:05.384Z,31.90
2019-05-22T05:53:43.730Z,32.10
2019-05-22T05:56:21.350Z,32.30
2019-05-22T05:58:53.088Z,32.30
2019-05-22T06:01:43.768Z,32.50
2019-05-22T06:04:16.878Z,32.60
2019-05-22T06:06:53.533Z,32.70
2019-05-22T06:09:27.913Z,32.80
2019-05-22T06:12:05.741Z,32.80
2019-05-22T06:14:39.332Z,32.90
2019-05-22T06:17:31.014Z,33.00
2019-05-22T06:20:10.696Z,33.10
2019-05-22T06:22:46.434Z,33.20
2019-05-22T06:25:18.784Z,33.30
2019-05-22T06:27:52.216Z,33.40
2019-05-22T06:30:27.924Z,33.50
2019-05-22T06:33:20.181Z,33.60
2019-05-22T06:35:53.934Z,33.70
2019-05-22T06:38:29.306Z,33.70
2019-05-22T06:41:02.122Z,33.80
2019-05-22T06:43:41.622Z,33.90
2019-05-22T06:46:14.373Z,34.00
2019-05-22T06:48:49.454Z,34.10
2019-05-22T06:51:27.778Z,34.20
2019-05-22T06:54:00.355Z,34.20
2019-05-22T06:56:32.733Z,34.20
2019-05-22T06:59:05.434Z,34.20
2019-05-22T07:01:38.903Z,34.20
2019-05-22T07:04:10.878Z,34.10
2019-05-22T07:06:43.750Z,34.10
2019-05-22T07:09:16.709Z,34.10
2019-05-22T07:11:49.334Z,34.20
2019-05-22T07:14:22.817Z,34.20
2019-05-22T07:16:57.089Z,34.20
2019-05-22T07:19:31.866Z,34.30
2019-05-22T07:22:05.644Z,34.40
2019-05-22T07:24:38.519Z,34.40
2019-05-22T07:27:29.084Z,34.40
2019-05-22T07:30:02.920Z,34.50
2019-05-22T07:32:37.375Z,34.40
2019-05-22T07:35:11.010Z,34.40
2019-05-22T07:37:45.906Z,34.40
2019-05-22T07:40:18.540Z,34.50
2019-05-22T07:42:51.372Z,34.60
2019-05-22T07:45:28.799Z,34.60
2019-05-22T07:48:01.959Z,34.60
2019-05-22T07:50:37.825Z,34.50
2019-05-22T07:53:11.910Z,34.50
2019-05-22T07:55:43.361Z,34.50
2019-05-22T07:58:20.554Z,34.60
2019-05-22T08:01:00.204Z,34.60
2019-05-22T08:03:35.984Z,34.60
2019-05-22T08:06:10.958Z,34.60
2019-05-22T08:08:44.790Z,34.60
2019-05-22T08:11:17.476Z,34.60
2019-05-22T08:13:51.751Z,34.60
2019-05-22T08:16:26.969Z,34.60
2019-05-22T08:19:00.461Z,34.60
2019-05-22T08:21:34.859Z,34.70
2019-05-22T08:24:08.380Z,34.60
2019-05-22T08:26:53.720Z,34.70
2019-05-22T08:29:14.898Z,34.70
2019-05-22T08:31:47.869Z,34.70
2019-05-22T08:34:20.562Z,34.80
2019-05-22T08:36:53.539Z,34.80
2019-05-22T08:39:27.349Z,34.90
2019-05-22T08:42:00.584Z,34.90
2019-05-22T08:44:33.334Z,35.00
2019-05-22T08:47:06.121Z,35.00
2019-05-22T08:49:38.707Z,35.00
2019-05-22T08:52:23.011Z,34.90
2019-05-22T08:54:47.612Z,34.90
2019-05-22T08:57:21.123Z,34.90
2019-05-22T08:59:55.790Z,34.90
2019-05-22T09:02:27.404Z,34.90
2019-05-22T09:05:01.697Z,34.90
2019-05-22T09:07:35.637Z,34.90
2019-05-22T09:10:10.462Z,34.90
2019-05-22T09:12:41.846Z,34.80
2019-05-22T09:15:16.735Z,34.70
2019-05-22T09:17:51.229Z,34.70
2019-05-22T09:20:25.228Z,34.60
2019-05-22T09:22:57.819Z,34.50
2019-05-22T09:25:32.502Z,34.30
2019-05-22T09:28:06.741Z,34.30
2019-05-22T09:30:39.618Z,34.10
2019-05-22T09:33:14.051Z,34.00
2019-05-22T09:35:45.930Z,33.90
2019-05-22T09:38:17.643Z,33.70
2019-05-22T09:40:50.779Z,33.70
2019-05-22T09:43:23.818Z,33.60
2019-05-22T09:45:56.658Z,33.60
2019-05-22T09:48:30.850Z,33.60
2019-05-22T09:51:02.318Z,33.60
2019-05-22T09:53:34.222Z,33.50
2019-05-22T09:56:06.026Z,33.50
2019-05-22T09:58:40.346Z,33.40
2019-05-22T10:01:13.794Z,33.40
2019-05-22T10:03:47.453Z,33.40
2019-05-22T10:06:21.880Z,33.40
2019-05-22T10:08:54.576Z,33.50
2019-05-22T10:11:28.022Z,33.60
2019-05-22T10:14:02.275Z,33.60
2019-05-22T10:16:35.015Z,33.50
2019-05-22T10:19:07.582Z,33.40
2019-05-22T10:21:40.762Z,33.30
2019-05-22T10:24:13.506Z,33.20
2019-05-22T10:26:47.943Z,33.20
2019-05-22T10:29:25.211Z,33.10
2019-05-22T10:31:57.657Z,33.00
2019-05-22T10:34:31.516Z,32.90
2019-05-22T10:37:06.357Z,32.90
2019-05-22T10:39:38.786Z,32.90
2019-05-22T10:42:13.077Z,32.80
2019-05-22T10:44:45.360Z,32.80
2019-05-22T10:47:18.829Z,32.80
2019-05-22T10:49:51.413Z,32.70
2019-05-22T10:52:24.737Z,32.60
2019-05-22T10:54:57.345Z,32.60
2019-05-22T10:57:30.357Z,32.50
2019-05-22T11:00:05.803Z,32.50
2019-05-22T11:02:38.470Z,32.40
2019-05-22T11:05:13.625Z,32.30
2019-05-22T11:07:46.447Z,32.20
2019-05-22T11:10:18.859Z,32.10
2019-05-22T11:12:54.013Z,32.00
2019-05-22T11:15:25.217Z,31.90
2019-05-22T11:17:57.215Z,31.90
2019-05-22T11:20:31.434Z,31.80
2019-05-22T11:23:04.234Z,31.70
2019-05-22T11:25:39.140Z,31.70
2019-05-22T11:28:17.855Z,31.60
2019-05-22T11:30:55.218Z,31.60
2019-05-22T11:33:28.583Z,31.40
2019-05-22T11:36:01.495Z,31.40
2019-05-22T11:38:36.215Z,31.30
2019-05-22T11:41:12.353Z,31.30
2019-05-22T11:43:46.363Z,31.30
2019-05-22T11:46:19.801Z,31.20
2019-05-22T11:48:55.452Z,31.20
2019-05-22T11:51:28.206Z,31.00
2019-05-22T11:54:09.138Z,31.00
2019-05-22T11:56:35.062Z,30.90
2019-05-22T11:59:07.506Z,30.80
2019-05-22T12:01:42.712Z,30.80
2019-05-22T12:04:14.567Z,30.70
2019-05-22T12:06:53.814Z,30.70
2019-05-22T12:09:25.463Z,30.60
2019-05-22T12:11:59.357Z,30.50
2019-05-22T12:14:32.781Z,30.50
2019-05-22T12:17:04.438Z,30.50
2019-05-22T12:19:38.301Z,30.50
2019-05-22T12:22:11.413Z,30.40
2019-05-22T12:24:44.217Z,30.50
2019-05-22T12:27:17.180Z,30.40
2019-05-22T12:29:50.703Z,30.40
2019-05-22T12:32:25.205Z,30.40
2019-05-22T12:34:58.274Z,30.40
2019-05-22T12:37:29.851Z,30.40
2019-05-22T12:40:03.272Z,30.40
2019-05-22T12:42:35.770Z,30.30
2019-05-22T12:45:11.228Z,30.30
2019-05-22T12:47:45.450Z,30.20
2019-05-22T12:50:19.547Z,30.20
2019-05-22T12:52:53.929Z,30.10
2019-05-22T12:55:27.329Z,30.10
2019-05-22T12:58:00.583Z,30.00
2019-05-22T13:00:34.173Z,30.00
2019-05-22T13:03:08.090Z,30.00
2019-05-22T13:05:41.596Z,29.90
2019-05-22T13:08:15.688Z,29.90
2019-05-22T13:10:50.716Z,29.90
2019-05-22T13:13:22.409Z,29.90
2019-05-22T13:15:56.339Z,29.90
2019-05-22T13:18:29.388Z,29.90
2019-05-22T13:21:03.185Z,29.90
2019-05-22T13:23:39.614Z,29.90
2019-05-22T13:26:13.252Z,29.90
2019-05-22T13:28:51.023Z,29.80
2019-05-22T13:31:23.727Z,29.80
2019-05-22T13:33:56.710Z,29.80
2019-05-22T13:36:29.595Z,29.80
2019-05-22T13:39:04.313Z,29.70
2019-05-22T13:41:40.896Z,29.70
2019-05-22T13:44:14.649Z,29.70
2019-05-22T13:46:48.766Z,29.60
2019-05-22T13:49:24.432Z,29.60
2019-05-22T13:52:01.667Z,29.50
2019-05-22T13:54:34.565Z,29.50
2019-05-22T13:57:07.341Z,29.40
2019-05-22T13:59:39.907Z,29.30
2019-05-22T14:02:12.694Z,29.30
2019-05-22T14:04:45.408Z,29.20
2019-05-22T14:07:18.354Z,29.20
2019-05-22T14:09:52.676Z,29.20
2019-05-22T14:12:25.478Z,29.20
2019-05-22T14:14:59.514Z,29.20
2019-05-22T14:17:36.955Z,29.10
2019-05-22T14:20:12.301Z,29.10
2019-05-22T14:22:46.403Z,29.10
2019-05-22T14:25:21.691Z,29.10
2019-05-22T14:27:53.497Z,29.10
2019-05-22T14:30:27.179Z,29.10
2019-05-22T14:33:04.166Z,29.10
2019-05-22T14:35:47.525Z,29.10
2019-05-22T14:38:12.368Z,29.00
2019-05-22T14:40:44.070Z,29.00
2019-05-22T14:43:18.496Z,29.00
2019-05-22T14:45:51.400Z,28.90
2019-05-22T14:48:27.152Z,28.90
2019-05-22T14:51:04.977Z,28.80
2019-05-22T14:53:40.172Z,28.80
2019-05-22T14:56:13.074Z,28.80
2019-05-22T14:58:43.690Z,28.70
2019-05-22T15:01:16.898Z,28.70
2019-05-22T15:03:51.973Z,28.70
2019-05-22T15:06:23.849Z,28.60
2019-05-22T15:08:56.807Z,28.60
2019-05-22T15:11:28.174Z,28.60
2019-05-22T15:13:59.730Z,28.60
2019-05-22T15:16:31.101Z,28.60
2019-05-22T15:19:04.646Z,28.60
2019-05-22T15:21:35.064Z,28.60
2019-05-22T15:24:06.999Z,28.50
2019-05-22T15:26:38.572Z,28.50
2019-05-22T15:29:10.000Z,28.50
2019-05-22T15:31:42.687Z,28.50
2019-05-22T15:34:12.919Z,28.50
2019-05-22T15:36:43.943Z,28.50
2019-05-22T15:39:18.172Z,28.50
2019-05-22T15:41:49.880Z,28.50
2019-05-22T15:44:21.449Z,28.50
2019-05-22T15:46:53.062Z,28.50
2019-05-22T15:49:24.068Z,28.50
2019-05-22T15:51:56.206Z,28.50
2019-05-22T15:54:30.349Z,28.50
2019-05-22T15:57:02.277Z,28.50
2019-05-22T15:59:33.004Z,28.50
2019-05-22T16:02:07.227Z,28.50
2019-05-22T16:04:42.267Z,28.40
2019-05-22T16:07:14.442Z,28.40
2019-05-22T16:09:47.017Z,28.40
2019-05-22T16:12:21.627Z,28.40
2019-05-22T16:14:53.081Z,28.40
2019-05-22T16:17:24.769Z,28.30
2019-05-22T16:19:57.275Z,28.30
2019-05-22T16:22:31.257Z,28.30
2019-05-22T16:25:02.154Z,28.30
2019-05-22T16:27:44.933Z,28.30
2019-05-22T16:30:18.606Z,28.30
2019-05-22T16:32:51.200Z,28.30
2019-05-22T16:35:22.634Z,28.30
2019-05-22T16:37:53.916Z,28.30
2019-05-22T16:40:28.809Z,28.30
2019-05-22T16:43:00.307Z,28.30
2019-05-22T16:45:33.042Z,28.30
2019-05-22T16:48:04.898Z,28.30
2019-05-22T16:50:37.150Z,28.30
2019-05-22T16:53:10.978Z,28.30
2019-05-22T16:55:43.120Z,28.30
2019-05-22T16:58:16.945Z,28.40
2019-05-22T17:00:48.137Z,28.40
2019-05-22T17:03:18.659Z,28.40
2019-05-22T17:05:51.605Z,28.40
2019-05-22T17:08:23.148Z,28.30
2019-05-22T17:10:58.626Z,28.30
2019-05-22T17:13:30.910Z,28.30
2019-05-22T17:16:03.147Z,28.30
2019-05-22T17:18:46.672Z,28.30
2019-05-22T17:21:08.093Z,28.30
2019-05-22T17:23:39.596Z,28.20
2019-05-22T17:26:12.367Z,28.20
2019-05-22T17:28:43.913Z,28.20
2019-05-22T17:31:15.379Z,28.20
2019-05-22T17:33:47.090Z,28.20
2019-05-22T17:36:20.312Z,28.20
2019-05-22T17:38:54.462Z,28.20
2019-05-22T17:41:26.026Z,28.20
2019-05-22T17:44:00.297Z,28.20
2019-05-22T17:46:38.116Z,28.20
2019-05-22T17:49:12.581Z,28.20
2019-05-22T17:51:44.507Z,28.20
2019-05-22T17:54:16.768Z,28.20
2019-05-22T17:56:48.739Z,28.30
2019-05-22T17:59:21.182Z,28.20
2019-05-22T18:01:51.528Z,28.30
2019-05-22T18:04:24.199Z,28.30
2019-05-22T18:07:00.018Z,28.30
2019-05-22T18:09:30.731Z,28.20
2019-05-22T18:12:02.795Z,28.20
2019-05-22T18:14:34.273Z,28.20
2019-05-22T18:17:05.623Z,28.20
2019-05-22T18:19:35.959Z,28.20
2019-05-22T18:22:10.074Z,28.10
2019-05-22T18:24:42.040Z,28.10
2019-05-22T18:27:12.333Z,28.10
2019-05-22T18:29:43.884Z,28.00
2019-05-22T18:32:14.443Z,28.00
2019-05-22T18:34:44.754Z,28.00
2019-05-22T18:37:15.251Z,27.90
2019-05-22T18:39:46.730Z,27.90
2019-05-22T18:42:18.502Z,27.90
2019-05-22T18:44:48.885Z,27.90
2019-05-22T18:47:19.661Z,27.90
2019-05-22T18:49:52.234Z,27.90
2019-05-22T18:52:38.174Z,27.90
2019-05-22T18:54:55.466Z,27.90
2019-05-22T18:57:28.828Z,27.90
2019-05-22T19:00:04.225Z,27.80
2019-05-22T19:02:34.213Z,27.90
2019-05-22T19:05:07.337Z,27.90
2019-05-22T19:07:37.801Z,27.90
2019-05-22T19:10:10.875Z,27.90
2019-05-22T19:12:42.457Z,27.90
2019-05-22T19:15:13.772Z,27.90
2019-05-22T19:17:45.230Z,27.90
2019-05-22T19:20:16.687Z,27.90
2019-05-22T19:23:00.321Z,28.00
2019-05-22T19:25:23.683Z,28.00
2019-05-22T19:27:53.909Z,28.00
2019-05-22T19:30:26.973Z,28.00
2019-05-22T19:32:58.276Z,28.00
2019-05-22T19:35:29.452Z,28.00
2019-05-22T19:38:01.686Z,28.00
2019-05-22T19:40:32.097Z,28.00
2019-05-22T19:43:05.764Z,28.00
2019-05-22T19:45:36.171Z,28.00
2019-05-22T19:48:08.136Z,28.00
2019-05-22T19:50:40.738Z,28.00
2019-05-22T19:53:19.485Z,28.00
2019-05-22T19:55:48.419Z,28.00
2019-05-22T19:58:22.068Z,28.00
2019-05-22T20:00:53.380Z,28.00
2019-05-22T20:03:25.211Z,27.90
2019-05-22T20:05:57.610Z,27.90
2019-05-22T20:08:28.821Z,27.80
2019-05-22T20:10:59.240Z,27.80
2019-05-22T20:13:31.023Z,27.70
2019-05-22T20:16:02.499Z,27.70
2019-05-22T20:18:33.955Z,27.70
2019-05-22T20:21:04.835Z,27.70
2019-05-22T20:23:36.910Z,27.70
2019-05-22T20:26:07.373Z,27.60
2019-05-22T20:28:39.328Z,27.60
2019-05-22T20:31:10.113Z,27.60
2019-05-22T20:33:41.681Z,27.60
2019-05-22T20:36:13.863Z,27.60
2019-05-22T20:38:45.186Z,27.60
2019-05-22T20:41:15.732Z,27.60
2019-05-22T20:43:46.908Z,27.60
2019-05-22T20:46:18.524Z,27.60
2019-05-22T20:48:51.907Z,27.60
2019-05-22T20:51:24.319Z,27.60
2019-05-22T20:53:56.126Z,27.60
2019-05-22T20:56:29.317Z,27.50
2019-05-22T20:59:01.122Z,27.60
2019-05-22T21:01:33.843Z,27.60
2019-05-22T21:04:08.038Z,27.60
2019-05-22T21:06:41.391Z,27.60
2019-05-22T21:09:12.360Z,27.60
2019-05-22T21:11:43.748Z,27.60
2019-05-22T21:14:15.490Z,27.60
2019-05-22T21:16:47.449Z,27.60
2019-05-22T21:19:18.393Z,27.50
2019-05-22T21:21:51.591Z,27.50
2019-05-22T21:24:21.921Z,27.50
2019-05-22T21:26:55.148Z,27.50
2019-05-22T21:29:25.786Z,27.50
2019-05-22T21:31:57.008Z,27.50
2019-05-22T21:34:30.985Z,27.50
2019-05-22T21:37:02.623Z,27.50
2019-05-22T21:39:34.115Z,27.50
2019-05-22T21:42:04.958Z,27.50
2019-05-22T21:44:38.238Z,27.50
2019-05-22T21:47:08.810Z,27.50
2019-05-22T21:49:39.342Z,27.50
2019-05-22T21:52:27.459Z,27.40
2019-05-22T21:55:00.554Z,27.50
2019-05-22T21:57:30.910Z,27.40
2019-05-22T22:00:02.359Z,27.40
2019-05-22T22:02:36.690Z,27.40
2019-05-22T22:05:10.239Z,27.30
2019-05-22T22:07:43.006Z,27.30
2019-05-22T22:10:17.383Z,27.30
2019-05-22T22:12:48.837Z,27.30
2019-05-22T22:15:19.068Z,27.30
2019-05-22T22:17:50.669Z,27.30
2019-05-22T22:20:23.302Z,27.30
2019-05-22T22:22:53.995Z,27.40
2019-05-22T22:25:25.383Z,27.30
2019-05-22T22:27:57.456Z,27.30
2019-05-22T22:30:29.565Z,27.30
2019-05-22T22:33:02.878Z,27.30
2019-05-22T22:35:34.781Z,27.30
2019-05-22T22:38:06.070Z,27.30
2019-05-22T22:40:37.245Z,27.30
2019-05-22T22:43:08.727Z,27.30
2019-05-22T22:45:40.126Z,27.30
2019-05-22T22:48:12.389Z,27.30
2019-05-22T22:50:47.831Z,27.30
2019-05-22T22:53:20.764Z,27.30
2019-05-22T22:55:51.232Z,27.30
2019-05-22T22:58:21.461Z,27.20
2019-05-22T23:00:54.877Z,27.30
2019-05-22T23:03:27.093Z,27.20
2019-05-22T23:05:58.529Z,27.20
2019-05-22T23:08:31.746Z,27.20
2019-05-22T23:11:05.435Z,27.20
2019-05-22T23:13:38.027Z,27.20
2019-05-22T23:16:09.214Z,27.20
2019-05-22T23:18:49.269Z,27.20
2019-05-22T23:21:38.900Z,27.10
2019-05-22T23:24:22.306Z,27.10
2019-05-22T23:26:54.350Z,27.20
2019-05-22T23:29:26.554Z,27.20
2019-05-22T23:31:59.958Z,27.10
2019-05-22T23:34:31.632Z,27.10
2019-05-22T23:37:03.563Z,27.10
2019-05-22T23:39:41.320Z,27.10
2019-05-22T23:42:15.367Z,27.20
2019-05-22T23:44:45.922Z,27.20
2019-05-22T23:47:18.052Z,27.20
2019-05-22T23:49:49.656Z,27.20
2019-05-22T23:52:21.691Z,27.20
2019-05-22T23:54:54.612Z,27.30
2019-05-22T23:57:27.097Z,27.30
